createdAt,value
2018-11-01T00:01:36.214Z,8.57
2018-11-01T00:04:07.269Z,9.20
2018-11-01T00:06:38.261Z,8.73
2018-11-01T00:09:10.777Z,11.80
2018-11-01T00:11:41.778Z,8.83
2018-11-01T00:14:12.910Z,8.23
2018-11-01T00:16:44.155Z,8.07
2018-11-01T00:19:15.176Z,11.13
2018-11-01T00:21:46.303Z,7.93
2018-11-01T00:24:17.296Z,10.20
2018-11-01T00:26:48.333Z,9.53
2018-11-01T00:29:19.325Z,6.73
2018-11-01T00:31:50.335Z,9.90
2018-11-01T00:34:21.312Z,10.47
2018-11-01T00:36:52.312Z,10.13
2018-11-01T00:39:23.357Z,8.23
2018-11-01T00:41:54.788Z,8.73
2018-11-01T00:44:25.865Z,9.03
2018-11-01T00:46:57.246Z,7.97
2018-11-01T00:49:28.552Z,7.77
2018-11-01T00:51:59.611Z,11.53
2018-11-01T00:54:30.616Z,10.77
2018-11-01T00:57:01.693Z,9.03
2018-11-01T00:59:33.046Z,9.97
2018-11-01T01:02:04.225Z,8.30
2018-11-01T01:04:35.426Z,8.50
2018-11-01T01:07:06.543Z,11.73
2018-11-01T01:09:37.462Z,13.90
2018-11-01T01:12:09.059Z,8.73
2018-11-01T01:14:40.089Z,10.67
2018-11-01T01:17:11.057Z,11.20
2018-11-01T01:19:42.159Z,10.00
2018-11-01T01:22:13.737Z,7.83
2018-11-01T01:24:45.294Z,9.63
2018-11-01T01:27:16.632Z,9.43
2018-11-01T01:29:48.489Z,9.80
2018-11-01T01:32:19.612Z,10.37
2018-11-01T01:34:50.796Z,10.60
2018-11-01T01:37:21.962Z,13.00
2018-11-01T01:39:53.427Z,8.40
2018-11-01T01:42:36.586Z,8.93
2018-11-01T01:45:09.327Z,9.10
2018-11-01T01:47:40.724Z,8.43
2018-11-01T01:50:14.578Z,8.57
2018-11-01T01:52:45.949Z,8.33
2018-11-01T01:55:17.360Z,8.97
2018-11-01T01:57:48.348Z,9.30
2018-11-01T02:00:20.983Z,8.87
2018-11-01T02:02:53.434Z,10.70
2018-11-01T02:05:24.944Z,10.20
2018-11-01T02:07:56.413Z,9.63
2018-11-01T02:10:27.420Z,8.97
2018-11-01T02:12:58.452Z,12.47
2018-11-01T02:15:29.401Z,9.80
2018-11-01T02:18:00.471Z,10.27
2018-11-01T02:20:32.389Z,7.83
2018-11-01T02:23:03.436Z,8.53
2018-11-01T02:25:34.528Z,8.10
2018-11-01T02:28:18.827Z,8.23
2018-11-01T02:30:50.210Z,8.13
2018-11-01T02:33:21.287Z,10.60
2018-11-01T02:35:52.694Z,8.90
2018-11-01T02:38:24.121Z,8.67
2018-11-01T02:40:55.306Z,9.50
2018-11-01T02:43:26.649Z,8.90
2018-11-01T02:46:02.224Z,8.90
2018-11-01T02:48:33.499Z,10.07
2018-11-01T02:51:04.572Z,8.97
2018-11-01T02:53:36.017Z,11.17
2018-11-01T02:56:07.324Z,11.33
2018-11-01T02:58:38.391Z,12.27
2018-11-01T03:01:09.443Z,8.67
2018-11-01T03:03:40.527Z,11.33
2018-11-01T03:06:11.479Z,9.53
2018-11-01T03:08:42.717Z,8.63
2018-11-01T03:11:13.834Z,10.97
2018-11-01T03:13:45.346Z,8.87
2018-11-01T03:16:16.335Z,10.10
2018-11-01T03:18:47.969Z,10.67
2018-11-01T03:21:19.340Z,8.87
2018-11-01T03:23:50.389Z,10.37
2018-11-01T03:26:21.663Z,11.17
2018-11-01T03:28:52.662Z,9.30
2018-11-01T03:31:24.173Z,10.50
2018-11-01T03:33:55.285Z,10.23
2018-11-01T03:36:26.805Z,8.00
2018-11-01T03:38:58.281Z,9.07
2018-11-01T03:41:29.136Z,7.87
2018-11-01T03:44:00.899Z,9.57
2018-11-01T03:46:32.603Z,9.27
2018-11-01T03:49:03.763Z,8.20
2018-11-01T03:51:34.939Z,7.40
2018-11-01T03:54:06.725Z,9.50
2018-11-01T03:56:38.913Z,7.10
2018-11-01T03:59:10.040Z,8.07
2018-11-01T04:01:41.508Z,8.07
2018-11-01T04:04:12.640Z,8.63
2018-11-01T04:06:43.725Z,9.27
2018-11-01T04:09:15.559Z,8.50
2018-11-01T04:11:46.487Z,10.60
2018-11-01T04:14:17.591Z,7.87
2018-11-01T04:16:48.657Z,7.20
2018-11-01T04:19:19.679Z,7.00
2018-11-01T04:21:54.325Z,8.87
2018-11-01T04:24:25.682Z,7.37
2018-11-01T04:26:56.857Z,7.87
2018-11-01T04:29:27.971Z,7.43
2018-11-01T04:31:59.317Z,7.53
2018-11-01T04:34:30.861Z,6.37
2018-11-01T04:37:01.803Z,9.20
2018-11-01T04:39:32.743Z,6.73
2018-11-01T04:42:03.949Z,5.83
2018-11-01T04:44:35.221Z,8.37
2018-11-01T04:47:06.275Z,5.90
2018-11-01T04:49:37.605Z,6.10
2018-11-01T04:52:09.031Z,6.33
2018-11-01T04:54:40.137Z,6.73
2018-11-01T04:57:11.122Z,6.33
2018-11-01T04:59:42.179Z,8.10
2018-11-01T05:02:13.187Z,8.40
2018-11-01T05:04:44.150Z,7.77
2018-11-01T05:07:15.156Z,7.67
2018-11-01T05:09:47.192Z,6.50
2018-11-01T05:12:18.200Z,10.70
2018-11-01T05:14:49.307Z,5.93
2018-11-01T05:17:20.327Z,5.93
2018-11-01T05:19:51.487Z,5.90
2018-11-01T05:22:22.530Z,5.63
2018-11-01T05:24:53.647Z,4.23
2018-11-01T05:27:24.626Z,4.93
2018-11-01T05:29:55.575Z,5.63
2018-11-01T05:32:26.615Z,3.80
2018-11-01T05:34:58.318Z,5.53
2018-11-01T05:37:29.413Z,4.63
2018-11-01T05:40:00.377Z,6.43
2018-11-01T05:42:32.505Z,6.20
2018-11-01T05:45:03.992Z,4.33
2018-11-01T05:47:34.968Z,5.50
2018-11-01T05:50:06.144Z,5.23
2018-11-01T05:52:37.220Z,7.47
2018-11-01T05:55:09.019Z,4.90
2018-11-01T05:57:39.958Z,5.17
2018-11-01T06:00:15.207Z,9.00
2018-11-01T06:02:50.148Z,5.70
2018-11-01T06:05:21.020Z,4.57
2018-11-01T06:08:11.912Z,5.17
2018-11-01T06:10:42.803Z,6.07
2018-11-01T06:13:13.660Z,6.50
2018-11-01T06:15:44.540Z,4.13
2018-11-01T06:18:15.420Z,5.17
2018-11-01T06:20:46.371Z,4.50
2018-11-01T06:23:17.224Z,4.17
2018-11-01T06:25:48.280Z,5.03
2018-11-01T06:28:19.184Z,4.00
2018-11-01T06:30:50.343Z,4.83
2018-11-01T06:33:21.530Z,4.20
2018-11-01T06:35:54.307Z,5.57
2018-11-01T06:38:25.235Z,4.57
2018-11-01T06:40:56.453Z,5.20
2018-11-01T06:43:27.931Z,6.60
2018-11-01T06:45:58.820Z,4.07
2018-11-01T06:48:29.731Z,5.00
2018-11-01T06:51:00.625Z,5.97
2018-11-01T06:53:31.534Z,4.13
2018-11-01T06:56:02.704Z,7.77
2018-11-01T06:58:34.313Z,4.00
2018-11-01T07:01:05.029Z,4.50
2018-11-01T07:03:35.952Z,6.67
2018-11-01T07:06:07.033Z,4.57
2018-11-01T07:08:38.268Z,3.20
2018-11-01T07:11:09.152Z,5.90
2018-11-01T07:13:40.044Z,3.60
2018-11-01T07:16:10.946Z,3.10
2018-11-01T07:18:41.847Z,5.87
2018-11-01T07:21:12.744Z,3.47
2018-11-01T07:23:43.658Z,6.03
2018-11-01T07:26:14.722Z,3.47
2018-11-01T07:28:45.774Z,4.20
2018-11-01T07:31:17.078Z,2.37
2018-11-01T07:33:47.980Z,3.33
2018-11-01T07:36:19.066Z,7.63
2018-11-01T07:38:50.516Z,3.63
2018-11-01T07:41:21.748Z,3.43
2018-11-01T07:43:52.694Z,3.03
2018-11-01T07:46:23.579Z,4.17
2018-11-01T07:48:54.744Z,5.73
2018-11-01T07:51:25.909Z,4.10
2018-11-01T07:53:56.873Z,5.90
2018-11-01T07:56:27.756Z,5.47
2018-11-01T07:58:58.807Z,3.13
2018-11-01T08:01:29.746Z,9.03
2018-11-01T08:04:01.284Z,4.83
2018-11-01T08:06:32.281Z,4.80
2018-11-01T08:09:05.024Z,4.13
2018-11-01T08:11:36.548Z,3.67
2018-11-01T08:14:08.169Z,3.80
2018-11-01T08:16:39.426Z,5.60
2018-11-01T08:19:10.950Z,4.77
2018-11-01T08:21:42.134Z,3.60
2018-11-01T08:24:13.275Z,5.10
2018-11-01T08:26:44.564Z,3.70
2018-11-01T08:29:15.554Z,7.13
2018-11-01T08:31:46.449Z,3.30
2018-11-01T08:34:17.350Z,4.57
2018-11-01T08:36:48.258Z,4.50
2018-11-01T08:39:19.567Z,6.37
2018-11-01T08:41:50.610Z,7.00
2018-11-01T08:44:21.525Z,4.00
2018-11-01T08:46:52.426Z,4.13
2018-11-01T08:49:23.422Z,3.67
2018-11-01T08:51:54.324Z,4.10
2018-11-01T08:54:25.656Z,3.40
2018-11-01T08:56:56.583Z,4.97
2018-11-01T08:59:27.857Z,5.57
2018-11-01T09:01:59.080Z,5.70
2018-11-01T09:04:30.351Z,3.33
2018-11-01T09:07:01.566Z,3.30
2018-11-01T09:09:32.509Z,4.27
2018-11-01T09:12:03.785Z,4.80
2018-11-01T09:14:35.664Z,3.53
2018-11-01T09:17:06.728Z,5.23
2018-11-01T09:19:38.394Z,4.33
2018-11-01T09:22:09.936Z,6.93
2018-11-01T09:24:40.927Z,5.57
2018-11-01T09:27:11.865Z,5.47
2018-11-01T09:29:43.173Z,3.73
2018-11-01T09:32:14.107Z,5.30
2018-11-01T09:34:45.556Z,3.53
2018-11-01T09:37:16.809Z,3.97
2018-11-01T09:39:48.146Z,3.60
2018-11-01T09:42:19.166Z,4.53
2018-11-01T09:44:50.171Z,3.77
2018-11-01T09:47:21.492Z,5.10
2018-11-01T09:49:52.445Z,7.93
2018-11-01T09:52:24.005Z,4.30
2018-11-01T09:54:54.996Z,4.27
2018-11-01T09:57:26.251Z,3.70
2018-11-01T09:59:57.157Z,3.90
2018-11-01T10:02:28.808Z,4.33
2018-11-01T10:04:59.728Z,2.90
2018-11-01T10:07:31.039Z,7.17
2018-11-01T10:10:01.958Z,6.57
2018-11-01T10:12:33.165Z,5.27
2018-11-01T10:15:04.102Z,4.27
2018-11-01T10:17:35.800Z,8.10
2018-11-01T10:20:08.400Z,4.03
2018-11-01T10:22:39.736Z,5.07
2018-11-01T10:25:12.774Z,4.00
2018-11-01T10:27:43.750Z,4.60
2018-11-01T10:30:17.020Z,5.80
2018-11-01T10:32:48.726Z,5.23
2018-11-01T10:35:20.255Z,6.23
2018-11-01T10:37:51.109Z,6.63
2018-11-01T10:40:22.661Z,3.67
2018-11-01T10:42:54.126Z,5.70
2018-11-01T10:45:25.334Z,4.97
2018-11-01T10:47:56.341Z,4.87
2018-11-01T10:50:27.313Z,4.60
2018-11-01T10:52:58.619Z,3.70
2018-11-01T10:55:29.637Z,5.00
2018-11-01T10:58:01.163Z,5.07
2018-11-01T11:00:49.520Z,4.07
2018-11-01T11:03:20.732Z,3.80
2018-11-01T11:05:51.863Z,7.97
2018-11-01T11:08:23.165Z,4.70
2018-11-01T11:10:54.523Z,3.93
2018-11-01T11:13:25.747Z,4.40
2018-11-01T11:15:57.174Z,4.27
2018-11-01T11:18:28.598Z,3.50
2018-11-01T11:21:00.126Z,3.23
2018-11-01T11:23:30.736Z,3.63
2018-11-01T11:26:02.021Z,3.07
2018-11-01T11:28:33.523Z,4.33
2018-11-01T11:31:04.997Z,5.40
2018-11-01T11:33:36.389Z,4.33
2018-11-01T11:36:07.838Z,3.30
2018-11-01T11:38:38.745Z,4.60
2018-11-01T11:41:09.805Z,3.67
2018-11-01T11:43:40.766Z,5.20
2018-11-01T11:46:12.144Z,6.73
2018-11-01T11:48:43.210Z,4.00
2018-11-01T11:51:14.310Z,3.87
2018-11-01T11:53:45.621Z,4.43
2018-11-01T11:56:17.462Z,6.43
2018-11-01T11:58:48.440Z,3.80
2018-11-01T12:01:19.411Z,5.70
2018-11-01T12:03:50.373Z,3.60
2018-11-01T12:06:21.790Z,5.77
2018-11-01T12:08:52.612Z,4.03
2018-11-01T12:11:23.668Z,5.07
2018-11-01T12:13:54.709Z,5.33
2018-11-01T12:16:26.057Z,5.13
2018-11-01T12:18:57.854Z,4.70
2018-11-01T12:21:28.973Z,3.57
2018-11-01T12:24:00.549Z,4.70
2018-11-01T12:26:31.906Z,4.93
2018-11-01T12:29:03.183Z,5.00
2018-11-01T12:31:35.477Z,6.87
2018-11-01T12:34:07.045Z,6.73
2018-11-01T12:36:38.237Z,6.57
2018-11-01T12:39:10.170Z,5.83
2018-11-01T12:41:41.258Z,5.97
2018-11-01T12:44:12.265Z,9.83
2018-11-01T12:46:43.305Z,4.40
2018-11-01T12:49:14.907Z,4.47
2018-11-01T12:51:46.202Z,6.63
2018-11-01T12:54:17.506Z,5.00
2018-11-01T12:56:48.485Z,3.97
2018-11-01T12:59:19.418Z,4.37
2018-11-01T13:01:50.426Z,5.40
2018-11-01T13:04:21.473Z,2.83
2018-11-01T13:06:52.453Z,4.13
2018-11-01T13:09:23.421Z,4.70
2018-11-01T13:11:54.401Z,4.60
2018-11-01T13:14:26.022Z,3.50
2018-11-01T13:16:57.780Z,4.57
2018-11-01T13:19:29.646Z,5.43
2018-11-01T13:22:00.682Z,6.43
2018-11-01T13:24:31.950Z,4.37
2018-11-01T13:27:03.383Z,5.83
2018-11-01T13:29:34.391Z,6.87
2018-11-01T13:32:05.444Z,5.90
2018-11-01T13:34:36.769Z,6.17
2018-11-01T13:37:07.717Z,6.40
2018-11-01T13:39:39.278Z,6.37
2018-11-01T13:42:10.177Z,6.37
2018-11-01T13:44:41.396Z,9.00
2018-11-01T13:47:12.434Z,7.87
2018-11-01T13:49:43.644Z,9.53
2018-11-01T13:52:14.721Z,6.80
2018-11-01T13:54:45.827Z,7.90
2018-11-01T13:57:16.967Z,6.37
2018-11-01T13:59:48.026Z,5.50
2018-11-01T14:02:19.100Z,5.80
2018-11-01T14:04:50.178Z,7.73
2018-11-01T14:07:21.220Z,6.37
2018-11-01T14:09:52.386Z,5.00
2018-11-01T14:12:23.530Z,7.37
2018-11-01T14:14:54.871Z,5.93
2018-11-01T14:17:25.580Z,5.23
2018-11-01T14:19:56.585Z,6.83
2018-11-01T14:22:27.705Z,4.90
2018-11-01T14:24:58.833Z,8.27
2018-11-01T14:27:29.901Z,6.07
2018-11-01T14:30:00.868Z,7.53
2018-11-01T14:32:32.219Z,7.87
2018-11-01T14:35:04.028Z,6.47
2018-11-01T14:37:35.278Z,8.93
2018-11-01T14:40:08.141Z,7.53
2018-11-01T14:42:39.397Z,6.83
2018-11-01T14:45:10.887Z,6.80
2018-11-01T14:47:42.001Z,5.67
2018-11-01T14:50:13.296Z,6.07
2018-11-01T14:52:44.570Z,5.70
2018-11-01T14:55:16.483Z,6.07
2018-11-01T14:57:47.700Z,8.33
2018-11-01T15:00:17.312Z,5.03
2018-11-01T15:02:48.384Z,7.03
2018-11-01T15:05:19.689Z,5.73
2018-11-01T15:07:50.987Z,6.17
2018-11-01T15:10:21.909Z,5.07
2018-11-01T15:12:53.396Z,7.33
2018-11-01T15:15:24.341Z,6.23
2018-11-01T15:17:55.736Z,7.17
2018-11-01T15:20:26.736Z,5.70
2018-11-01T15:22:58.013Z,5.07
2018-11-01T15:25:29.326Z,4.23
2018-11-01T15:28:00.646Z,6.00
2018-11-01T15:30:31.695Z,7.30
2018-11-01T15:33:02.738Z,6.77
2018-11-01T15:35:33.689Z,8.83
2018-11-01T15:38:05.096Z,6.40
2018-11-01T15:40:36.193Z,7.83
2018-11-01T15:43:07.201Z,8.93
2018-11-01T15:45:38.673Z,6.07
2018-11-01T15:48:09.710Z,4.87
2018-11-01T15:50:40.650Z,7.87
2018-11-01T15:53:11.700Z,8.20
2018-11-01T15:55:42.785Z,11.30
2018-11-01T15:58:14.085Z,8.13
2018-11-01T16:00:45.095Z,9.47
2018-11-01T16:03:16.537Z,7.37
2018-11-01T16:05:47.760Z,5.50
2018-11-01T16:08:18.905Z,6.40
2018-11-01T16:10:50.935Z,7.87
2018-11-01T16:13:22.514Z,7.20
2018-11-01T16:15:53.920Z,7.23
2018-11-01T16:18:25.452Z,6.73
2018-11-01T16:20:56.918Z,5.77
2018-11-01T16:23:28.074Z,6.37
2018-11-01T16:25:59.080Z,8.43
2018-11-01T16:28:30.249Z,6.07
2018-11-01T16:31:01.253Z,5.23
2018-11-01T16:33:33.117Z,7.70
2018-11-01T16:36:04.470Z,10.37
2018-11-01T16:38:35.667Z,6.57
2018-11-01T16:41:06.983Z,18.23
2018-11-01T16:43:38.161Z,53.40
2018-11-01T16:46:09.317Z,22.30
2018-11-01T16:48:40.619Z,17.97
2018-11-01T16:51:11.818Z,9.10
2018-11-01T16:53:42.730Z,8.63
2018-11-01T16:56:13.845Z,9.03
2018-11-01T16:58:44.870Z,8.73
2018-11-01T17:01:16.440Z,9.40
2018-11-01T17:03:47.570Z,10.37
2018-11-01T17:06:18.699Z,6.70
2018-11-01T17:08:49.773Z,7.13
2018-11-01T17:11:20.899Z,5.53
2018-11-01T17:13:51.882Z,8.27
2018-11-01T17:16:23.275Z,7.67
2018-11-01T17:18:54.808Z,7.77
2018-11-01T17:21:25.984Z,9.93
2018-11-01T17:23:57.296Z,8.87
2018-11-01T17:26:28.863Z,8.33
2018-11-01T17:28:59.889Z,12.30
2018-11-01T17:31:30.845Z,15.70
2018-11-01T17:34:01.984Z,18.77
2018-11-01T17:36:32.863Z,11.67
2018-11-01T17:39:04.614Z,13.97
2018-11-01T17:41:35.518Z,12.10
2018-11-01T17:44:06.524Z,8.87
2018-11-01T17:46:37.456Z,8.57
2018-11-01T17:49:09.410Z,10.40
2018-11-01T17:51:40.567Z,7.83
2018-11-01T17:54:17.928Z,9.13
2018-11-01T17:56:48.857Z,13.20
2018-11-01T17:59:19.793Z,19.60
2018-11-01T18:01:51.230Z,12.93
2018-11-01T18:04:22.105Z,15.30
2018-11-01T18:06:53.090Z,16.07
2018-11-01T18:09:24.008Z,15.83
2018-11-01T18:11:54.943Z,12.77
2018-11-01T18:14:25.919Z,17.47
2018-11-01T18:16:56.797Z,15.17
2018-11-01T18:19:27.787Z,28.03
2018-11-01T18:21:58.788Z,23.23
2018-11-01T18:24:29.691Z,20.67
2018-11-01T18:27:00.638Z,19.70
2018-11-01T18:29:31.573Z,30.90
2018-11-01T18:32:03.104Z,29.70
2018-11-01T18:34:34.092Z,26.93
2018-11-01T18:37:05.558Z,22.23
2018-11-01T18:39:36.628Z,17.50
2018-11-01T18:42:07.930Z,13.17
2018-11-01T18:44:39.348Z,13.07
2018-11-01T18:47:10.352Z,14.80
2018-11-01T18:49:41.305Z,16.20
2018-11-01T18:52:12.300Z,13.50
2018-11-01T18:54:43.449Z,11.53
2018-11-01T18:57:14.460Z,10.57
2018-11-01T18:59:45.389Z,11.93
2018-11-01T19:02:16.468Z,11.07
2018-11-01T19:04:47.439Z,13.03
2018-11-01T19:07:18.387Z,10.13
2018-11-01T19:09:49.329Z,14.33
2018-11-01T19:12:20.297Z,34.37
2018-11-01T19:14:51.208Z,42.93
2018-11-01T19:17:22.170Z,28.53
2018-11-01T19:19:53.377Z,22.93
2018-11-01T19:22:24.278Z,15.67
2018-11-01T19:24:55.201Z,15.60
2018-11-01T19:27:26.495Z,15.37
2018-11-01T19:29:57.392Z,13.53
2018-11-01T19:32:28.579Z,12.77
2018-11-01T19:34:59.532Z,16.80
2018-11-01T19:37:30.957Z,20.53
2018-11-01T19:40:02.088Z,13.27
2018-11-01T19:42:32.889Z,11.17
2018-11-01T19:45:03.846Z,17.77
2018-11-01T19:47:35.067Z,11.53
2018-11-01T19:50:06.859Z,11.27
2018-11-01T19:52:37.910Z,10.30
2018-11-01T19:55:08.816Z,14.27
2018-11-01T19:57:40.282Z,16.90
2018-11-01T20:00:16.043Z,15.20
2018-11-01T20:02:46.300Z,16.07
2018-11-01T20:05:17.186Z,14.30
2018-11-01T20:07:48.410Z,11.97
2018-11-01T20:10:19.499Z,12.23
2018-11-01T20:12:50.702Z,13.30
2018-11-01T20:15:21.675Z,12.23
2018-11-01T20:17:52.627Z,11.23
2018-11-01T20:20:24.306Z,10.70
2018-11-01T20:22:56.013Z,12.80
2018-11-01T20:25:27.062Z,11.33
2018-11-01T20:27:57.972Z,10.90
2018-11-01T20:30:29.230Z,9.57
2018-11-01T20:33:00.134Z,10.13
2018-11-01T20:35:31.126Z,8.53
2018-11-01T20:38:02.462Z,11.87
2018-11-01T20:40:33.525Z,9.57
2018-11-01T20:43:04.480Z,9.70
2018-11-01T20:45:35.384Z,9.23
2018-11-01T20:48:06.818Z,9.10
2018-11-01T20:50:37.758Z,10.13
2018-11-01T20:53:11.631Z,8.97
2018-11-01T20:55:42.701Z,9.83
2018-11-01T20:58:13.792Z,9.67
2018-11-01T21:00:45.052Z,10.40
2018-11-01T21:03:15.950Z,7.87
2018-11-01T21:05:47.185Z,8.63
2018-11-01T21:08:18.555Z,9.40
2018-11-01T21:10:49.942Z,8.40
2018-11-01T21:13:20.846Z,10.37
2018-11-01T21:15:51.801Z,8.50
2018-11-01T21:18:22.903Z,6.87
2018-11-01T21:20:54.560Z,8.77
2018-11-01T21:23:25.500Z,8.77
2018-11-01T21:25:56.821Z,9.33
2018-11-01T21:28:28.008Z,14.53
2018-11-01T21:30:59.471Z,9.93
2018-11-01T21:33:30.646Z,10.83
2018-11-01T21:36:01.718Z,8.60
2018-11-01T21:38:32.815Z,10.17
2018-11-01T21:41:03.786Z,10.47
2018-11-01T21:43:34.698Z,12.17
2018-11-01T21:46:05.748Z,7.40
2018-11-01T21:48:37.439Z,9.70
2018-11-01T21:51:08.806Z,8.93
2018-11-01T21:53:39.783Z,9.03
2018-11-01T21:56:11.045Z,10.13
2018-11-01T21:58:42.310Z,18.37
2018-11-01T22:01:13.208Z,17.40
2018-11-01T22:03:44.637Z,21.83
2018-11-01T22:06:16.229Z,20.63
2018-11-01T22:08:47.141Z,19.57
2018-11-01T22:11:18.892Z,20.03
2018-11-01T22:13:50.218Z,20.97
2018-11-01T22:16:21.189Z,15.40
2018-11-01T22:18:52.118Z,14.37
2018-11-01T22:21:23.413Z,16.77
2018-11-01T22:23:54.779Z,15.10
2018-11-01T22:26:25.788Z,15.80
2018-11-01T22:28:57.015Z,12.33
2018-11-01T22:31:28.230Z,12.93
2018-11-01T22:33:59.224Z,11.53
2018-11-01T22:36:30.470Z,11.40
2018-11-01T22:39:01.701Z,10.43
2018-11-01T22:41:32.963Z,11.73
2018-11-01T22:44:03.871Z,10.43
2018-11-01T22:46:34.811Z,10.93
2018-11-01T22:49:05.727Z,11.77
2018-11-01T22:51:36.918Z,10.40
2018-11-01T22:54:08.060Z,12.03
2018-11-01T22:56:40.455Z,13.40
2018-11-01T22:59:11.694Z,10.90
2018-11-01T23:01:42.630Z,21.10
2018-11-01T23:04:16.061Z,19.20
2018-11-01T23:06:49.559Z,18.37
2018-11-01T23:09:20.836Z,10.87
2018-11-01T23:11:52.255Z,7.77
2018-11-01T23:14:23.792Z,6.33
2018-11-01T23:16:54.793Z,7.50
2018-11-01T23:19:25.729Z,11.17
2018-11-01T23:21:57.522Z,9.97
2018-11-01T23:24:29.496Z,7.07
2018-11-01T23:27:00.927Z,10.57
2018-11-01T23:29:32.112Z,9.90
2018-11-01T23:32:03.784Z,10.20
2018-11-01T23:34:35.367Z,9.97
2018-11-01T23:37:24.276Z,11.73
2018-11-01T23:40:12.596Z,9.20
2018-11-01T23:43:02.307Z,10.03
2018-11-01T23:45:50.314Z,9.27
2018-11-01T23:48:19.975Z,9.70
2018-11-01T23:51:01.688Z,8.50
2018-11-01T23:53:35.301Z,8.67
2018-11-01T23:56:06.315Z,9.53
2018-11-01T23:58:37.296Z,10.27
